ニューヨーク/JFK の空港の天気 - METARとTAF

ジョン・F・ケネディ国際空港 ( KJFK / JFK ) - アメリカ ニューヨーク州ニューヨーク
飛行場実況気象(Metar)
観測時間08/22 11:51 EDT (08/22 15:51 UTC)
風向・風速西南西 6m/s
視程10km以上
天気現象
少しの雲 雲底高度 1370m
全天の8割程度の雲 雲底高度 10060m
気温29.4℃
湿度61%
気圧1012hPa
METARKJFK 221551Z 25012KT 10SM FEW045 BKN330 29/21 A2989 RMK AO2 SLP120 T02940211 $
過去の天気等 Google飛行場航空写真 Wunderground天気予報

過去48時間のMETAR

飛行場予報(TAF)
発表時間: 8/22 11:29 EDT (8/22 15:29 UTC)
予報対象時間: 22日11時 EDT ~ 23日14時 EDT
風向・風速西 4m/s
視程10km以上
全天の8割程度の雲 雲底高度 7620m
22日13時 EDT から
風向・風速南西 5m/s
視程10km以上
少しの雲 雲底高度 1220m
全天の4割程度の雲 雲底高度 4570m
全天の8割程度の雲 雲底高度 7620m
22日15時 EDT から
風向・風速南 6m/s 瞬間風速 8m/s
視程10km以上
天気現象周辺でしゅう雨
少しの雲 雲底高度 1220m
全天の4割程度の雲 雲底高度 2130m
全天の8割程度の雲 雲底高度 4570m
22日20時 EDT から
風向・風速南西 5m/s
視程10km以上
天気現象周辺でしゅう雨
全天の8割程度の雲 雲底高度 1830m
全天の8割程度の雲 雲底高度 3050m
22日20時 EDT から 確率 30% で
視程4830m
天気現象弱い雷雨
全天を覆う積乱雲 雲底高度 1520m
23日1時 EDT から
風向・風速北西 4m/s
視程10km以上
天気現象周辺でしゅう雨
全天の8割程度の雲 雲底高度 1830m
全天の8割程度の雲 雲底高度 4570m
23日12時 EDT から
風向・風速北北西 3m/s
視程10km以上
全天の4割程度の雲 雲底高度 4570m
KJFK 221529Z 2215/2318 26008KT P6SM BKN250
FM221700 23010KT P6SM FEW040 SCT150 BKN250
FM221900 19011G16KT P6SM VCSH FEW040 SCT070 BKN150
FM230000 22010KT P6SM VCSH BKN060 BKN100
PROB30 2300/2305 3SM -TSRA OVC050CB
FM230500 32008KT P6SM VCSH BKN060 BKN150
FM231600 33006KT P6SM SCT150